Time;durP1;ratioP1;P1;durP2;ratioP2;P2;SDS_P1;SDS_P2;PMS_P1;PMS_P2;Temp;Humidity;BMP_temperature;BMP_pressure;BME280_temperature;BME280_humidity;BME280_pressure;Samples;Min_cycle;Max_cycle;Signal;HPM_P1;HPM_P2
2024/02/04 00:00:05;;;;;;;2.93;2.30;;;;;16.70;101180.00;;;;2051021;28;20262;-57
2024/02/04 00:01:05;;;;;;;4.57;2.85;;;;;16.70;101186.00;;;;2061519;28;20646;-59
2024/02/04 00:02:07;;;;;;;2.93;2.37;;;;;16.70;101180.00;;;;2060594;28;20219;-57
2024/02/04 00:03:07;;;;;;;3.08;2.50;;;;;16.70;101176.00;;;;2061133;28;20228;-62
2024/02/04 00:04:07;;;;;;;3.83;2.47;;;;;16.70;101181.00;;;;2051036;28;20714;-58
2024/02/04 00:05:08;;;;;;;3.20;2.37;;;;;16.70;101183.00;;;;2061217;28;20230;-57
2024/02/04 00:06:08;;;;;;;3.10;2.30;;;;;16.70;101177.00;;;;2059485;28;20224;-58
2024/02/04 00:07:08;;;;;;;3.43;2.30;;;;;16.70;101182.00;;;;2061239;28;20878;-59
2024/02/04 00:08:09;;;;;;;3.43;2.77;;;;;16.70;101181.00;;;;2060545;28;20231;-62
2024/02/04 00:09:09;;;;;;;3.73;2.50;;;;;16.30;101175.00;;;;2048639;28;20272;-59
2024/02/04 00:10:10;;;;;;;4.93;2.60;;;;;16.70;101171.00;;;;2061486;28;20489;-58
2024/02/04 00:11:11;;;;;;;3.03;2.07;;;;;16.70;101175.00;;;;2060818;28;20255;-59
2024/02/04 00:12:12;;;;;;;3.15;2.38;;;;;16.70;101172.00;;;;2061327;28;20290;-58
2024/02/04 00:13:12;;;;;;;2.80;1.93;;;;;16.70;101176.00;;;;2051898;28;20229;-57
2024/02/04 00:14:12;;;;;;;4.20;2.40;;;;;16.70;101173.00;;;;2042873;28;20323;-58
2024/02/04 00:15:13;;;;;;;3.03;2.30;;;;;16.70;101164.00;;;;2051283;28;20312;-58
2024/02/04 00:16:13;;;;;;;2.93;2.53;;;;;16.70;101165.00;;;;2052054;28;20217;-58
2024/02/04 00:17:14;;;;;;;3.33;2.30;;;;;16.80;101160.00;;;;2061202;28;20216;-58
2024/02/04 00:18:15;;;;;;;3.10;2.20;;;;;16.70;101163.00;;;;2060715;28;20579;-58
2024/02/04 00:19:15;;;;;;;3.23;2.30;;;;;16.70;101150.00;;;;2051215;28;20247;-58
2024/02/04 00:20:16;;;;;;;5.37;2.50;;;;;16.70;101142.00;;;;2058470;28;20229;-59
2024/02/04 00:21:16;;;;;;;2.50;2.00;;;;;16.70;101145.00;;;;2055424;28;20224;-58
2024/02/04 00:22:18;;;;;;;3.60;2.30;;;;;16.70;101148.00;;;;2052360;28;20937;-58
2024/02/04 00:23:19;;;;;;;3.30;2.28;;;;;16.70;101145.00;;;;2051893;28;20323;-58
2024/02/04 00:24:19;;;;;;;3.93;2.20;;;;;16.70;101148.00;;;;2042900;28;20225;-58
2024/02/04 00:25:20;;;;;;;3.70;2.67;;;;;16.70;101136.00;;;;2059056;28;20217;-58
2024/02/04 00:26:20;;;;;;;3.00;2.30;;;;;16.70;101144.00;;;;2060885;28;20712;-58
2024/02/04 00:27:20;;;;;;;3.20;2.20;;;;;16.70;101149.00;;;;2060674;28;20264;-58
2024/02/04 00:28:21;;;;;;;3.00;2.40;;;;;16.70;101151.00;;;;2061016;28;20723;-58
2024/02/04 00:29:21;;;;;;;2.83;2.13;;;;;16.70;101145.00;;;;2051581;28;20242;-57
2024/02/04 00:30:21;;;;;;;3.13;2.07;;;;;16.70;101150.00;;;;2051717;28;20221;-58
2024/02/04 00:31:22;;;;;;;2.63;2.10;;;;;16.70;101156.00;;;;2051623;28;20228;-58
2024/02/04 00:32:22;;;;;;;2.70;2.20;;;;;16.70;101157.00;;;;2060511;28;20243;-58
2024/02/04 00:33:22;;;;;;;3.20;2.37;;;;;16.70;101156.00;;;;2059895;28;20220;-57
2024/02/04 00:34:23;;;;;;;2.40;1.90;;;;;16.70;101148.00;;;;2050279;28;20290;-58
2024/02/04 00:35:23;;;;;;;3.10;2.20;;;;;16.70;101156.00;;;;2058529;28;20248;-58
2024/02/04 00:36:23;;;;;;;2.97;2.27;;;;;16.70;101160.00;;;;2061168;28;20722;-58
2024/02/04 00:37:24;;;;;;;3.17;2.23;;;;;16.70;101159.00;;;;2060683;28;20702;-58
2024/02/04 00:38:24;;;;;;;2.40;1.77;;;;;16.80;101152.00;;;;2061150;28;20254;-58
2024/02/04 00:39:24;;;;;;;3.80;2.07;;;;;16.70;101155.00;;;;2041863;28;20228;-58
2024/02/04 00:40:26;;;;;;;3.07;2.00;;;;;16.70;101164.00;;;;2051579;28;20268;-58
2024/02/04 00:41:26;;;;;;;3.03;1.98;;;;;16.70;101161.00;;;;2059558;28;20216;-58
2024/02/04 00:42:27;;;;;;;3.20;2.30;;;;;16.70;101160.00;;;;2059367;28;20656;-57
2024/02/04 00:43:27;;;;;;;4.50;2.57;;;;;15.90;101164.00;;;;2057481;28;20224;-57
2024/02/04 00:44:27;;;;;;;3.20;2.10;;;;;16.70;101164.00;;;;2050479;28;20277;-58
2024/02/04 00:45:28;;;;;;;3.93;1.87;;;;;16.80;101164.00;;;;2056482;28;20224;-58
2024/02/04 00:46:28;;;;;;;2.50;1.77;;;;;16.70;101164.00;;;;2060309;28;20235;-58
2024/02/04 00:47:28;;;;;;;3.13;2.30;;;;;16.70;101168.00;;;;2058308;28;20254;-58
2024/02/04 00:48:29;;;;;;;2.73;1.90;;;;;16.70;101164.00;;;;2060090;28;20215;-58
2024/02/04 00:49:29;;;;;;;2.87;2.43;;;;;16.70;101162.00;;;;2044411;28;20757;-57
2024/02/04 00:50:29;;;;;;;2.60;2.10;;;;;16.70;101154.00;;;;2052431;28;20733;-58
2024/02/04 00:51:30;;;;;;;4.10;2.13;;;;;16.70;101155.00;;;;2051393;28;20710;-58
2024/02/04 00:52:30;;;;;;;3.03;2.00;;;;;16.70;101161.00;;;;2060966;28;20214;-57
2024/02/04 00:53:33;;;;;;;3.13;2.23;;;;;16.70;101154.00;;;;2057373;28;20261;-58
2024/02/04 00:54:33;;;;;;;2.90;2.25;;;;;16.70;101163.00;;;;2045586;28;20230;-58
2024/02/04 00:55:34;;;;;;;3.93;1.90;;;;;16.70;101165.00;;;;2057339;28;20226;-57
2024/02/04 00:56:34;;;;;;;2.50;1.80;;;;;16.70;101163.00;;;;2059297;28;20221;-58
2024/02/04 00:57:35;;;;;;;2.33;1.87;;;;;16.70;101156.00;;;;2060801;28;20220;-57
2024/02/04 00:58:35;;;;;;;2.57;1.57;;;;;16.70;101155.00;;;;2057932;28;20298;-58
2024/02/04 00:59:36;;;;;;;2.60;1.90;;;;;16.70;101160.00;;;;2042792;28;20227;-58
2024/02/04 01:00:36;;;;;;;2.40;1.70;;;;;16.70;101160.00;;;;2049322;28;20320;-58
2024/02/04 01:01:36;;;;;;;3.00;1.90;;;;;16.70;101157.00;;;;2060840;28;20219;-58
2024/02/04 01:02:37;;;;;;;3.53;1.90;;;;;16.70;101145.00;;;;2060869;28;21028;-58
2024/02/04 01:03:37;;;;;;;3.60;1.90;;;;;16.70;101147.00;;;;2060730;28;20296;-57
2024/02/04 01:04:37;;;;;;;2.90;2.00;;;;;16.70;101197.00;;;;2050351;28;20215;-57
2024/02/04 01:05:38;;;;;;;2.80;2.00;;;;;16.70;101151.00;;;;2056113;28;20728;-57
2024/02/04 01:06:38;;;;;;;2.80;1.60;;;;;16.70;101155.00;;;;2051637;28;20975;-57
2024/02/04 01:07:38;;;;;;;2.53;1.70;;;;;16.70;101155.00;;;;2050137;28;20225;-57
2024/02/04 01:08:39;;;;;;;3.30;1.80;;;;;16.70;101162.00;;;;2058430;28;20236;-57
2024/02/04 01:09:39;;;;;;;3.07;2.00;;;;;16.70;101155.00;;;;2050903;28;20219;-57
2024/02/04 01:10:39;;;;;;;2.43;1.60;;;;;16.70;101145.00;;;;2060936;28;20222;-58
2024/02/04 01:11:40;;;;;;;3.03;1.90;;;;;16.70;101154.00;;;;2051777;28;20243;-58
2024/02/04 01:12:40;;;;;;;2.57;1.60;;;;;16.70;101144.00;;;;2052631;28;20313;-58
2024/02/04 01:13:40;;;;;;;2.43;1.80;;;;;16.70;101151.00;;;;2055032;28;20220;-59
2024/02/04 01:14:41;;;;;;;2.97;1.60;;;;;16.80;101152.00;;;;2050954;28;20265;-58
2024/02/04 01:15:41;;;;;;;2.83;1.90;;;;;16.80;101151.00;;;;2058700;28;20270;-58
2024/02/04 01:16:41;;;;;;;2.97;1.97;;;;;16.80;101153.00;;;;2060877;28;20215;-58
2024/02/04 01:17:42;;;;;;;2.67;2.00;;;;;16.70;101158.00;;;;2061076;28;20255;-57
2024/02/04 01:18:42;;;;;;;2.20;1.70;;;;;16.70;101158.00;;;;2059168;28;20245;-57
2024/02/04 01:19:42;;;;;;;2.40;1.80;;;;;16.70;101163.00;;;;2051014;28;20215;-58
2024/02/04 01:20:43;;;;;;;2.60;1.53;;;;;16.70;101156.00;;;;2059587;28;20229;-58
2024/02/04 01:21:44;;;;;;;2.33;1.70;;;;;16.70;101158.00;;;;2060745;28;20216;-58
2024/02/04 01:22:44;;;;;;;2.30;1.55;;;;;16.70;101156.00;;;;2060385;28;20248;-57
2024/02/04 01:23:45;;;;;;;2.27;1.70;;;;;16.70;101160.00;;;;2057291;28;20603;-58
2024/02/04 01:24:48;;;;;;;2.33;1.50;;;;;16.70;101152.00;;;;2050332;28;20807;-58
2024/02/04 01:25:48;;;;;;;2.25;1.60;;;;;16.70;101158.00;;;;2058591;28;20222;-58
2024/02/04 01:26:48;;;;;;;4.47;1.80;;;;;16.70;101157.00;;;;2060626;28;20262;-58
2024/02/04 01:27:49;;;;;;;3.30;2.07;;;;;16.70;101158.00;;;;2057356;28;20721;-57
2024/02/04 01:28:49;;;;;;;2.70;1.73;;;;;16.70;101155.00;;;;2060725;28;20239;-57
2024/02/04 01:29:50;;;;;;;2.70;1.90;;;;;16.70;101162.00;;;;2049821;28;20220;-58
2024/02/04 01:30:50;;;;;;;2.33;1.73;;;;;16.70;101155.00;;;;2050479;28;20223;-57
2024/02/04 01:31:51;;;;;;;2.90;1.70;;;;;16.70;101164.00;;;;2059962;28;20223;-58
2024/02/04 01:32:51;;;;;;;2.97;1.93;;;;;16.70;101164.00;;;;2059247;28;20234;-59
2024/02/04 01:33:51;;;;;;;2.80;1.87;;;;;16.70;101160.00;;;;2060683;28;20221;-59
2024/02/04 01:34:52;;;;;;;2.40;1.50;;;;;16.70;101165.00;;;;2049236;28;20215;-58
2024/02/04 01:35:52;;;;;;;2.73;1.77;;;;;16.70;101161.00;;;;2047199;28;20742;-59
2024/02/04 01:36:53;;;;;;;3.30;1.47;;;;;16.70;101161.00;;;;2051746;28;20627;-58
2024/02/04 01:37:53;;;;;;;2.50;1.70;;;;;16.80;101162.00;;;;2061735;28;20203;-58
2024/02/04 01:38:53;;;;;;;2.40;1.63;;;;;16.70;101164.00;;;;2060672;28;20276;-58
2024/02/04 01:39:54;;;;;;;2.10;1.60;;;;;16.70;101161.00;;;;2047405;28;20573;-58
2024/02/04 01:40:54;;;;;;;2.20;1.50;;;;;16.70;101167.00;;;;2062544;28;20209;-58
2024/02/04 01:41:54;;;;;;;1.97;1.30;;;;;16.70;101164.00;;;;2054746;28;20215;-58
2024/02/04 01:42:56;;;;;;;2.87;1.90;;;;;16.70;101164.00;;;;2050043;28;20247;-58
2024/02/04 01:43:56;;;;;;;2.92;1.70;;;;;16.70;101165.00;;;;2061029;28;20291;-58
2024/02/04 01:44:56;;;;;;;2.50;1.90;;;;;16.70;101163.00;;;;2050913;28;20218;-58
2024/02/04 01:45:57;;;;;;;2.93;1.50;;;;;16.70;101159.00;;;;2061210;28;20239;-58
2024/02/04 01:46:57;;;;;;;2.40;1.60;;;;;16.70;101163.00;;;;2056974;28;20219;-58
2024/02/04 01:47:57;;;;;;;2.50;1.37;;;;;16.70;101164.00;;;;2061387;28;20218;-58
2024/02/04 01:48:58;;;;;;;2.10;1.30;;;;;16.70;101152.00;;;;2054631;28;20203;-59
2024/02/04 01:49:58;;;;;;;2.43;1.33;;;;;16.70;101164.00;;;;2059487;28;20320;-58
2024/02/04 01:50:58;;;;;;;3.17;1.30;;;;;16.70;101152.00;;;;2054168;28;20215;-58
2024/02/04 01:51:59;;;;;;;2.93;1.90;;;;;16.70;101147.00;;;;2059877;28;20313;-58
2024/02/04 01:52:59;;;;;;;4.00;1.60;;;;;16.70;101157.00;;;;2053408;28;20204;-58
2024/02/04 01:53:59;;;;;;;3.37;1.70;;;;;16.70;101148.00;;;;2038789;28;20205;-58
2024/02/04 01:55:00;;;;;;;2.87;1.80;;;;;16.70;101152.00;;;;2053656;28;20223;-58
2024/02/04 01:56:00;;;;;;;2.20;1.50;;;;;16.70;101147.00;;;;2051596;28;20289;-58
2024/02/04 01:57:01;;;;;;;2.57;1.40;;;;;16.70;101150.00;;;;2044317;28;20457;-58
2024/02/04 01:58:02;;;;;;;2.33;1.47;;;;;16.70;101141.00;;;;2037124;29;20229;-58
2024/02/04 01:59:02;;;;;;;2.10;1.25;;;;;16.70;101127.00;;;;2043983;28;20199;-58
2024/02/04 02:00:04;;;;;;;2.63;1.20;;;;;16.70;101146.00;;;;2053623;28;20227;-58
2024/02/04 02:01:04;;;;;;;2.50;1.52;;;;;16.70;101099.00;;;;2049587;28;20203;-58
2024/02/04 02:02:04;;;;;;;2.80;1.50;;;;;16.70;101147.00;;;;2053798;28;20645;-58
2024/02/04 02:03:05;;;;;;;1.90;1.20;;;;;16.70;101132.00;;;;2045502;28;20264;-58
2024/02/04 02:04:05;;;;;;;2.60;1.63;;;;;16.70;101139.00;;;;2034841;28;20216;-58
2024/02/04 02:05:06;;;;;;;2.30;1.30;;;;;16.70;101134.00;;;;2053440;28;20233;-58
2024/02/04 02:06:07;;;;;;;2.78;1.58;;;;;16.80;101130.00;;;;2059751;28;20215;-58
2024/02/04 02:07:08;;;;;;;2.93;1.37;;;;;16.70;101133.00;;;;2057292;28;20216;-58
2024/02/04 02:08:08;;;;;;;2.30;1.43;;;;;16.70;101134.00;;;;2053603;28;20332;-58
2024/02/04 02:09:12;;;;;;;2.07;1.40;;;;;16.70;101129.00;;;;2043197;28;20208;-58
2024/02/04 02:10:13;;;;;;;2.13;1.25;;;;;16.70;101125.00;;;;2054218;28;20227;-58
2024/02/04 02:11:19;;;;;;;2.30;1.40;;;;;16.70;101131.00;;;;2061560;28;20226;-58
2024/02/04 02:12:25;;;;;;;2.67;1.40;;;;;16.70;101129.00;;;;2053791;28;20221;-58
2024/02/04 02:13:28;;;;;;;2.05;1.35;;;;;16.70;101130.00;;;;2045258;28;20599;-58
2024/02/04 02:14:31;;;;;;;2.83;1.63;;;;;16.70;101132.00;;;;2044055;28;20224;-58
2024/02/04 02:15:36;;;;;;;2.20;1.40;;;;;16.70;101137.00;;;;2051908;28;20221;-58
2024/02/04 02:16:36;;;;;;;2.75;1.38;;;;;16.70;101137.00;;;;2046256;28;20225;-58
2024/02/04 02:18:07;;;;;;;2.20;1.30;;;;;16.70;101156.00;;;;2053799;28;20227;-58
2024/02/04 02:19:34;;;;;;;2.80;1.50;;;;;16.70;101138.00;;;;2046853;28;20460;-58
2024/02/04 02:21:11;;;;;;;1.92;1.30;;;;;16.70;101140.00;;;;2053111;28;20307;-58
2024/02/04 02:22:53;;;;;;;2.47;1.55;;;;;16.70;101144.00;;;;2056901;28;20629;-58
2024/02/04 02:24:22;;;;;;;2.40;1.35;;;;;16.10;101148.00;;;;2020380;29;20261;-58
2024/02/04 02:25:23;;;;;;;2.25;1.45;;;;;16.70;101143.00;;;;2051239;28;20687;-59
2024/02/04 02:26:23;;;;;;;2.20;1.20;;;;;16.70;101140.00;;;;2051715;28;20232;-58
2024/02/04 02:27:23;;;;;;;2.60;1.60;;;;;16.70;101147.00;;;;2052837;28;20220;-58
2024/02/04 02:28:24;;;;;;;2.07;1.27;;;;;16.70;101142.00;;;;2052331;28;20321;-58
2024/02/04 02:29:24;;;;;;;3.03;1.40;;;;;16.70;101144.00;;;;2051800;28;20227;-58
2024/02/04 02:30:25;;;;;;;2.47;1.30;;;;;16.70;101138.00;;;;2061578;28;20232;-57
2024/02/04 02:31:25;;;;;;;2.87;1.50;;;;;16.70;101132.00;;;;2062374;28;20234;-58
2024/02/04 02:32:25;;;;;;;2.73;1.40;;;;;16.70;101136.00;;;;2050986;28;20252;-58
2024/02/04 02:33:26;;;;;;;2.47;1.47;;;;;16.70;101135.00;;;;2044979;28;20252;-58
2024/02/04 02:34:26;;;;;;;2.37;1.43;;;;;16.30;101147.00;;;;2040698;28;20229;-59
2024/02/04 02:35:26;;;;;;;2.20;1.40;;;;;16.70;101142.00;;;;2047183;28;20263;-58
2024/02/04 02:36:27;;;;;;;2.30;1.30;;;;;16.70;101135.00;;;;2035668;29;20232;-58
2024/02/04 02:37:32;;;;;;;2.30;0.90;;;;;16.70;101138.00;;;;2035037;29;20248;-58
2024/02/04 02:38:49;;;;;;;2.45;1.67;;;;;16.70;101111.00;;;;2031101;29;20330;-58
2024/02/04 02:40:08;;;;;;;2.35;1.58;;;;;16.70;101138.00;;;;2031862;28;20241;-58
2024/02/04 02:41:08;;;;;;;3.67;1.42;;;;;16.70;101140.00;;;;2047621;28;20610;-58
2024/02/04 02:42:08;;;;;;;1.97;1.10;;;;;16.70;101136.00;;;;2036845;29;20224;-58
2024/02/04 02:43:09;;;;;;;2.20;1.30;;;;;16.70;101136.00;;;;2045074;28;20217;-58
2024/02/04 02:44:09;;;;;;;2.53;1.47;;;;;16.70;101137.00;;;;2035019;28;20245;-58
2024/02/04 02:45:09;;;;;;;2.67;1.40;;;;;16.70;101138.00;;;;2052859;28;22263;-58
2024/02/04 02:46:10;;;;;;;2.40;1.23;;;;;16.70;101131.00;;;;2043198;28;20226;-58
2024/02/04 02:47:10;;;;;;;2.20;1.40;;;;;16.70;101134.00;;;;2037429;28;20221;-58
2024/02/04 02:48:11;;;;;;;2.13;1.27;;;;;16.70;101131.00;;;;2044899;28;20224;-59
2024/02/04 02:49:12;;;;;;;2.38;1.27;;;;;16.70;101135.00;;;;2026646;28;20222;-58
2024/02/04 02:50:12;;;;;;;2.23;1.40;;;;;16.70;101138.00;;;;2029463;29;20213;-58
2024/02/04 02:51:13;;;;;;;2.60;1.20;;;;;16.70;101141.00;;;;2036588;29;20214;-58
2024/02/04 02:52:13;;;;;;;2.17;1.30;;;;;16.70;101140.00;;;;2053230;28;20231;-58
2024/02/04 02:53:13;;;;;;;2.20;1.20;;;;;16.70;101143.00;;;;2061549;28;20234;-58
2024/02/04 02:54:14;;;;;;;2.20;1.30;;;;;16.70;101141.00;;;;2055367;28;20246;-58
2024/02/04 02:55:14;;;;;;;2.20;1.57;;;;;16.70;101136.00;;;;2060239;28;20223;-58
2024/02/04 02:56:14;;;;;;;1.80;1.10;;;;;16.70;101147.00;;;;2058190;28;20222;-58
2024/02/04 02:57:14;;;;;;;2.00;1.30;;;;;16.70;101141.00;;;;2060968;28;20278;-58
2024/02/04 02:58:15;;;;;;;2.00;1.20;;;;;16.70;101154.00;;;;2059258;28;20222;-58
2024/02/04 02:59:15;;;;;;;2.67;1.20;;;;;16.70;101143.00;;;;2047461;28;20235;-58
2024/02/04 03:00:16;;;;;;;2.97;1.50;;;;;16.70;101138.00;;;;2060895;28;20294;-58
2024/02/04 03:01:16;;;;;;;2.40;1.30;;;;;16.70;101133.00;;;;2059962;28;20258;-58
2024/02/04 03:02:17;;;;;;;2.37;1.53;;;;;16.70;101140.00;;;;2061906;28;20763;-59
2024/02/04 03:03:17;;;;;;;2.17;1.40;;;;;16.70;101135.00;;;;2059582;28;20949;-58
2024/02/04 03:04:17;;;;;;;2.03;1.17;;;;;16.70;101137.00;;;;2042661;28;20333;-58
2024/02/04 03:05:18;;;;;;;1.93;1.10;;;;;16.70;101135.00;;;;2051738;28;20224;-58
2024/02/04 03:06:18;;;;;;;2.77;1.67;;;;;16.70;101136.00;;;;2057785;28;20316;-58
2024/02/04 03:07:18;;;;;;;2.30;1.37;;;;;16.70;101133.00;;;;2061740;28;20234;-59
2024/02/04 03:08:19;;;;;;;2.00;1.10;;;;;16.70;101137.00;;;;2060380;28;20232;-59
2024/02/04 03:09:19;;;;;;;2.43;1.13;;;;;16.70;101137.00;;;;2049644;28;20236;-58
2024/02/04 03:10:19;;;;;;;2.60;1.77;;;;;16.70;101133.00;;;;2061744;28;20315;-58
2024/02/04 03:11:20;;;;;;;1.87;1.07;;;;;16.70;101134.00;;;;2057799;28;20236;-58
2024/02/04 03:12:20;;;;;;;1.97;1.10;;;;;16.70;101135.00;;;;2057456;28;20277;-58
2024/02/04 03:13:20;;;;;;;2.43;1.30;;;;;16.70;101138.00;;;;2060154;28;20231;-58
2024/02/04 03:14:21;;;;;;;1.70;1.00;;;;;16.70;101133.00;;;;2051983;28;20229;-58
2024/02/04 03:15:21;;;;;;;2.37;1.30;;;;;16.70;101134.00;;;;2060202;28;20228;-58
2024/02/04 03:16:21;;;;;;;2.37;1.70;;;;;16.70;101137.00;;;;2060958;28;20226;-58
2024/02/04 03:17:22;;;;;;;2.50;1.40;;;;;16.70;101131.00;;;;2061682;28;20231;-58
2024/02/04 03:18:22;;;;;;;2.10;1.30;;;;;16.70;101148.00;;;;2060736;28;20242;-58
2024/02/04 03:19:22;;;;;;;2.00;1.23;;;;;16.70;101127.00;;;;2052029;28;20239;-58
2024/02/04 03:20:23;;;;;;;2.23;1.40;;;;;16.70;101135.00;;;;2060566;28;20224;-59
2024/02/04 03:21:23;;;;;;;2.40;1.33;;;;;16.70;101134.00;;;;2061189;28;20223;-58
2024/02/04 03:22:23;;;;;;;2.53;0.97;;;;;16.70;101135.00;;;;2061624;28;20217;-59
2024/02/04 03:23:24;;;;;;;2.27;1.23;;;;;16.70;101135.00;;;;2061529;28;20340;-58
2024/02/04 03:24:24;;;;;;;2.43;1.33;;;;;16.70;101134.00;;;;2051748;28;20223;-58
2024/02/04 03:25:26;;;;;;;2.20;1.27;;;;;16.70;101137.00;;;;2059244;28;20354;-58
2024/02/04 03:26:26;;;;;;;1.80;1.10;;;;;16.70;101135.00;;;;2061161;28;20227;-62
2024/02/04 03:27:27;;;;;;;2.07;1.17;;;;;16.70;101126.00;;;;2061152;28;20616;-59
2024/02/04 03:28:27;;;;;;;1.80;1.03;;;;;16.70;101124.00;;;;2058831;28;21045;-58
2024/02/04 03:29:27;;;;;;;2.30;1.40;;;;;16.70;101130.00;;;;2051382;28;20728;-60
2024/02/04 03:30:28;;;;;;;1.93;1.20;;;;;16.70;101122.00;;;;2059351;28;20723;-60
2024/02/04 03:31:28;;;;;;;2.00;1.10;;;;;16.70;101111.00;;;;2061208;28;20227;-58
2024/02/04 03:32:33;;;;;;;1.93;1.30;;;;;16.40;101123.00;;;;2060869;28;20228;-58
2024/02/04 03:33:33;;;;;;;2.42;1.33;;;;;16.70;101108.00;;;;2061141;28;20875;-58
2024/02/04 03:34:35;;;;;;;2.27;1.33;;;;;16.70;101114.00;;;;2051403;28;20243;-58
2024/02/04 03:35:37;;;;;;;1.92;1.20;;;;;16.70;101127.00;;;;2059814;28;20219;-58
2024/02/04 03:36:38;;;;;;;2.22;1.15;;;;;16.70;101107.00;;;;2059605;28;20306;-58
2024/02/04 03:37:38;;;;;;;2.20;1.50;;;;;16.70;101113.00;;;;2060038;28;20211;-58
2024/02/04 03:38:38;;;;;;;2.57;1.30;;;;;16.70;101130.00;;;;2061379;28;20963;-58
2024/02/04 03:39:38;;;;;;;2.70;1.60;;;;;16.70;101107.00;;;;2051587;28;20579;-59
2024/02/04 03:40:42;;;;;;;2.93;1.40;;;;;16.70;101118.00;;;;2063227;28;20695;-59
2024/02/04 03:41:42;;;;;;;1.90;1.15;;;;;16.30;101104.00;;;;2060145;28;20800;-59
2024/02/04 03:42:43;;;;;;;2.20;1.30;;;;;16.70;101104.00;;;;2061644;28;20225;-58
2024/02/04 03:43:43;;;;;;;2.23;1.30;;;;;16.70;101093.00;;;;2061254;28;20223;-58
2024/02/04 03:44:45;;;;;;;2.97;1.27;;;;;16.70;101091.00;;;;2042273;28;20217;-58
2024/02/04 03:45:45;;;;;;;2.28;1.23;;;;;16.70;101089.00;;;;2051392;28;20227;-58
2024/02/04 03:46:50;;;;;;;2.43;1.00;;;;;16.70;101091.00;;;;2060665;28;20215;-58
2024/02/04 03:47:50;;;;;;;2.50;1.35;;;;;16.70;101094.00;;;;2061419;28;20223;-58
2024/02/04 03:48:50;;;;;;;2.70;1.30;;;;;16.70;101096.00;;;;2060731;28;20215;-58
2024/02/04 03:49:50;;;;;;;2.40;1.30;;;;;16.70;101087.00;;;;2051437;28;20238;-59
2024/02/04 03:50:51;;;;;;;1.93;1.10;;;;;16.70;101101.00;;;;2060748;28;20216;-58
2024/02/04 03:51:51;;;;;;;3.70;1.20;;;;;16.70;101100.00;;;;2061445;28;20293;-58
2024/02/04 03:52:53;;;;;;;2.77;1.33;;;;;16.70;101107.00;;;;2059430;28;20220;-59
2024/02/04 03:53:53;;;;;;;2.58;1.30;;;;;16.70;101102.00;;;;2060204;28;20278;-58
2024/02/04 03:54:53;;;;;;;2.40;1.50;;;;;16.70;101106.00;;;;2050284;28;20810;-59
2024/02/04 03:55:53;;;;;;;2.10;1.13;;;;;16.70;101110.00;;;;2059245;28;20218;-58
2024/02/04 03:56:54;;;;;;;2.27;1.20;;;;;16.70;101107.00;;;;2061537;28;20215;-59
2024/02/04 03:57:56;;;;;;;1.93;1.27;;;;;16.70;101111.00;;;;2060248;28;20250;-58
2024/02/04 03:58:57;;;;;;;2.50;1.35;;;;;16.70;101116.00;;;;2061261;28;20216;-58
2024/02/04 03:59:57;;;;;;;2.10;1.30;;;;;16.70;101111.00;;;;2039821;28;20238;-59
2024/02/04 04:00:58;;;;;;;3.23;1.60;;;;;16.70;101106.00;;;;2051789;28;20221;-59
2024/02/04 04:01:58;;;;;;;1.97;1.00;;;;;16.70;101116.00;;;;2061295;28;20211;-58
2024/02/04 04:02:58;;;;;;;2.07;1.00;;;;;16.70;101114.00;;;;2061208;28;20710;-58
2024/02/04 04:03:59;;;;;;;1.80;1.07;;;;;16.70;101125.00;;;;2051803;28;20216;-58
2024/02/04 04:04:59;;;;;;;2.37;1.07;;;;;16.70;101114.00;;;;2060419;28;20239;-58
2024/02/04 04:06:00;;;;;;;2.10;1.10;;;;;16.70;101117.00;;;;2059181;28;20272;-59
2024/02/04 04:07:00;;;;;;;2.10;1.20;;;;;16.70;101112.00;;;;2060648;28;20211;-58
2024/02/04 04:08:00;;;;;;;1.73;0.90;;;;;16.70;101107.00;;;;2060965;28;20266;-58
2024/02/04 04:09:01;;;;;;;1.70;1.10;;;;;16.70;101106.00;;;;2050673;28;20212;-58
2024/02/04 04:10:02;;;;;;;2.00;1.20;;;;;16.70;101107.00;;;;2060728;28;20219;-58
2024/02/04 04:11:02;;;;;;;2.13;1.30;;;;;16.70;101093.00;;;;2058073;28;20250;-62
2024/02/04 04:12:02;;;;;;;2.40;1.20;;;;;16.70;101095.00;;;;2061269;28;20249;-59
2024/02/04 04:13:03;;;;;;;2.20;1.20;;;;;16.70;101086.00;;;;2051686;28;20587;-58
2024/02/04 04:14:03;;;;;;;1.80;1.00;;;;;16.70;101092.00;;;;2042145;28;20250;-59
2024/02/04 04:15:04;;;;;;;2.00;1.30;;;;;16.70;101088.00;;;;2060297;28;20212;-57
2024/02/04 04:16:05;;;;;;;2.20;1.33;;;;;16.70;101100.00;;;;2058655;28;20216;-58
2024/02/04 04:17:05;;;;;;;2.37;1.40;;;;;16.70;101089.00;;;;2060709;28;20453;-59
2024/02/04 04:18:06;;;;;;;2.17;1.27;;;;;16.70;101090.00;;;;2060317;28;20207;-59
2024/02/04 04:19:06;;;;;;;1.93;1.03;;;;;16.70;101090.00;;;;2051405;28;20212;-58
2024/02/04 04:20:07;;;;;;;2.10;1.20;;;;;16.70;101092.00;;;;2061398;28;20212;-59
2024/02/04 04:21:07;;;;;;;2.20;1.30;;;;;16.70;101094.00;;;;2060608;28;20348;-58
2024/02/04 04:22:08;;;;;;;2.00;1.10;;;;;16.70;101094.00;;;;2059709;28;20281;-58
2024/02/04 04:23:08;;;;;;;3.20;1.23;;;;;16.70;101095.00;;;;2060439;28;20305;-58
2024/02/04 04:24:09;;;;;;;3.63;1.30;;;;;16.70;101126.00;;;;2039955;28;20705;-59
2024/02/04 04:25:09;;;;;;;1.93;1.10;;;;;16.70;101108.00;;;;2052278;28;20711;-58
2024/02/04 04:26:09;;;;;;;1.70;0.97;;;;;16.70;101101.00;;;;2050084;28;20793;-58
2024/02/04 04:27:10;;;;;;;1.90;1.03;;;;;16.70;101105.00;;;;2052694;28;20217;-58
2024/02/04 04:28:10;;;;;;;2.00;1.13;;;;;16.70;101114.00;;;;2051559;28;20229;-58
2024/02/04 04:29:10;;;;;;;1.80;0.93;;;;;16.70;101117.00;;;;2051365;28;20219;-58
2024/02/04 04:30:11;;;;;;;2.70;1.50;;;;;16.70;101104.00;;;;2060238;28;20216;-58
2024/02/04 04:31:11;;;;;;;1.87;1.20;;;;;16.70;101116.00;;;;2060729;28;20221;-58
2024/02/04 04:32:11;;;;;;;2.00;1.30;;;;;16.70;101116.00;;;;2051600;28;20244;-58
2024/02/04 04:33:13;;;;;;;2.20;1.50;;;;;16.60;101114.00;;;;2053980;28;20303;-58
2024/02/04 04:34:13;;;;;;;3.13;1.63;;;;;16.70;101122.00;;;;2051318;28;20215;-58
2024/02/04 04:35:14;;;;;;;2.27;1.33;;;;;16.70;101125.00;;;;2059111;28;20621;-58
2024/02/04 04:36:14;;;;;;;2.40;1.30;;;;;16.70;101131.00;;;;2060890;28;20208;-58
2024/02/04 04:37:14;;;;;;;2.00;1.30;;;;;16.70;101127.00;;;;2060541;28;20245;-58
2024/02/04 04:38:15;;;;;;;2.20;1.23;;;;;16.70;101130.00;;;;2061027;28;20219;-58
2024/02/04 04:39:15;;;;;;;2.10;1.10;;;;;16.70;101130.00;;;;2050546;28;20229;-58
2024/02/04 04:40:15;;;;;;;2.20;1.50;;;;;16.70;101133.00;;;;2058383;28;20721;-58
2024/02/04 04:41:16;;;;;;;1.90;0.97;;;;;16.70;101124.00;;;;2061280;28;20219;-58
2024/02/04 04:42:16;;;;;;;1.90;1.00;;;;;16.70;101138.00;;;;2057347;28;20219;-58
2024/02/04 04:43:16;;;;;;;1.90;1.10;;;;;16.80;101134.00;;;;2060482;28;20309;-58
2024/02/04 04:44:17;;;;;;;2.03;1.30;;;;;16.70;101136.00;;;;2050716;28;20275;-58
2024/02/04 04:45:17;;;;;;;2.20;1.33;;;;;16.70;101138.00;;;;2059275;28;20224;-58
2024/02/04 04:46:17;;;;;;;1.90;1.00;;;;;16.70;101144.00;;;;2059751;28;20254;-59
2024/02/04 04:47:18;;;;;;;2.53;1.53;;;;;16.70;101139.00;;;;2061123;28;20231;-58
2024/02/04 04:48:18;;;;;;;2.10;1.40;;;;;16.70;101132.00;;;;2061208;28;20216;-59
2024/02/04 04:49:19;;;;;;;2.57;1.40;;;;;16.70;101122.00;;;;2050821;28;20258;-59
2024/02/04 04:50:19;;;;;;;2.40;1.33;;;;;16.70;101122.00;;;;2061574;28;20215;-57
2024/02/04 04:51:19;;;;;;;2.10;1.13;;;;;16.70;101124.00;;;;2060505;28;20230;-58
2024/02/04 04:52:20;;;;;;;2.30;1.20;;;;;16.70;101120.00;;;;2059823;28;20215;-58
2024/02/04 04:53:20;;;;;;;2.90;1.40;;;;;16.70;101131.00;;;;2060232;28;20215;-59
2024/02/04 04:54:20;;;;;;;2.30;1.30;;;;;16.70;101122.00;;;;2050849;28;20338;-59
2024/02/04 04:55:21;;;;;;;1.97;1.00;;;;;16.70;101124.00;;;;2059821;28;20306;-56
2024/02/04 04:56:21;;;;;;;2.07;1.40;;;;;16.70;101125.00;;;;2051882;28;20217;-59
2024/02/04 04:57:21;;;;;;;2.20;1.50;;;;;16.70;101131.00;;;;2060996;28;20222;-58
2024/02/04 04:58:22;;;;;;;2.70;1.40;;;;;16.70;101117.00;;;;2057789;28;20219;-58
2024/02/04 04:59:22;;;;;;;2.20;1.40;;;;;16.70;101121.00;;;;2051321;28;20668;-60
2024/02/04 05:00:22;;;;;;;2.07;1.20;;;;;16.70;101122.00;;;;2060922;28;20683;-58
2024/02/04 05:01:23;;;;;;;2.10;1.30;;;;;16.70;101127.00;;;;2052530;28;20948;-57
2024/02/04 05:02:23;;;;;;;1.90;1.10;;;;;16.80;101117.00;;;;2056152;28;20624;-58